Time;durP1;ratioP1;P1;durP2;ratioP2;P2;SDS_P1;SDS_P2;PMS_P1;PMS_P2;Temp;Humidity;BMP_temperature;BMP_pressure;BME280_temperature;BME280_humidity;BME280_pressure;Samples;Min_cycle;Max_cycle;Signal;HPM_P1;HPM_P2
2022/04/18 00:02:22;;;;;;;16.30;9.30;;;;;;;1.03;66.21;96990.55;107753;1269;40005;-80
2022/04/18 00:04:53;;;;;;;23.40;13.10;;;;;;;0.98;66.35;96989.67;107683;1270;32631;-78
2022/04/18 00:07:24;;;;;;;25.60;13.30;;;;;;;0.89;66.56;96986.66;107688;1270;37801;-79
2022/04/18 00:09:54;;;;;;;29.20;13.90;;;;;;;0.83;66.87;96983.20;107605;1271;63083;-79
2022/04/18 00:12:25;;;;;;;25.90;12.80;;;;;;;0.73;67.34;96977.85;107680;1271;106827;-79
2022/04/18 00:14:59;;;;;;;19.20;9.10;;;;;;;0.64;67.83;96979.34;107690;1270;70021;-78
2022/04/18 00:17:30;;;;;;;13.70;6.30;;;;;;;0.61;68.03;96976.45;107694;1270;60210;-79
2022/04/18 00:20:01;;;;;;;11.70;6.20;;;;;;;0.62;68.06;96972.80;107647;1270;37021;-79
2022/04/18 00:22:32;;;;;;;12.60;7.00;;;;;;;0.60;68.00;96971.33;107597;1270;45343;-79
2022/04/18 00:25:03;;;;;;;12.90;5.90;;;;;;;0.63;67.37;96970.39;107583;1270;40596;-78
2022/04/18 00:27:34;;;;;;;9.90;5.60;;;;;;;0.63;67.50;96969.98;107589;1270;30565;-79
2022/04/18 00:30:05;;;;;;;8.30;5.50;;;;;;;0.63;67.82;96964.45;107615;1270;40479;-78
2022/04/18 00:32:37;;;;;;;8.80;5.50;;;;;;;0.55;67.98;96963.79;107542;1271;33358;-79
2022/04/18 00:35:10;;;;;;;11.10;5.60;;;;;;;0.45;68.21;96956.85;107594;1269;47608;-78
2022/04/18 00:37:40;;;;;;;12.00;6.00;;;;;;;0.41;68.23;96956.75;107556;1270;74241;-79
2022/04/18 00:40:13;;;;;;;12.40;5.60;;;;;;;0.42;68.52;96946.69;107715;1270;36344;-78
2022/04/18 00:42:46;;;;;;;10.90;5.50;;;;;;;0.44;68.65;96948.50;107690;1270;31240;-79
2022/04/18 00:45:17;;;;;;;12.00;6.10;;;;;;;0.50;68.64;96945.10;107667;1270;31644;-78
2022/04/18 00:47:48;;;;;;;8.20;4.60;;;;;;;0.50;68.30;96943.93;107651;1270;67489;-79
2022/04/18 00:50:18;;;;;;;9.10;4.50;;;;;;;0.46;68.33;96938.74;107660;1270;39991;-78
2022/04/18 00:52:50;;;;;;;8.80;5.40;;;;;;;0.49;68.40;96936.77;107772;1270;32527;-79
2022/04/18 00:55:24;;;;;;;9.50;5.40;;;;;;;0.47;68.38;96932.73;107744;1270;33188;-79
2022/04/18 00:57:56;;;;;;;8.90;5.10;;;;;;;0.45;68.84;96930.92;107716;1270;40543;-78
2022/04/18 01:00:27;;;;;;;12.00;5.90;;;;;;;0.43;69.46;96927.56;107669;1269;36019;-79
2022/04/18 01:02:58;;;;;;;9.00;5.70;;;;;;;0.41;69.48;96925.71;107524;1271;38630;-79
2022/04/18 01:05:29;;;;;;;11.20;5.20;;;;;;;0.48;69.27;96919.08;107589;1269;38002;-78
2022/04/18 01:08:00;;;;;;;11.10;5.60;;;;;;;0.56;69.22;96921.40;107615;1269;31046;-78
2022/04/18 01:10:31;;;;;;;9.80;5.30;;;;;;;0.63;68.83;96917.61;107649;1270;39184;-79
2022/04/18 01:13:01;;;;;;;9.10;5.20;;;;;;;0.58;68.54;96911.22;107708;1270;41498;-78
2022/04/18 01:15:32;;;;;;;9.70;5.20;;;;;;;0.63;68.31;96905.09;107698;1270;34676;-78
2022/04/18 01:18:03;;;;;;;10.10;5.80;;;;;;;0.66;68.58;96907.02;107667;1270;34619;-78
2022/04/18 01:20:37;;;;;;;9.40;5.50;;;;;;;0.65;68.19;96903.19;107648;1270;41491;-79
2022/04/18 01:23:09;;;;;;;11.00;6.10;;;;;;;0.67;68.25;96901.01;107615;1270;39977;-78
2022/04/18 01:31:17;;;;;;;10.10;6.70;;;;;;;0.84;68.08;96902.28;107657;1270;33077;-79
2022/04/18 01:33:48;;;;;;;13.70;7.80;;;;;;;0.87;68.41;96901.03;107689;1271;38703;-79
2022/04/18 01:36:19;;;;;;;12.90;7.10;;;;;;;0.87;68.24;96903.20;107661;1269;28328;-79
2022/04/18 01:38:50;;;;;;;14.50;8.50;;;;;;;0.88;68.27;96897.27;107615;1269;46861;-79
2022/04/18 01:41:21;;;;;;;12.30;7.30;;;;;;;0.87;68.51;96899.31;107629;1269;38808;-79
2022/04/18 01:43:52;;;;;;;15.20;7.50;;;;;;;0.86;68.47;96896.63;107707;1270;30954;-79
2022/04/18 01:46:23;;;;;;;11.30;6.40;;;;;;;0.84;68.48;96891.09;107642;1270;35823;-79
2022/04/18 01:48:54;;;;;;;12.20;6.80;;;;;;;0.83;68.49;96885.74;107642;1269;37885;-79
2022/04/18 01:51:25;;;;;;;11.80;6.70;;;;;;;0.87;68.74;96883.81;107646;1269;35873;-78
2022/04/18 01:53:56;;;;;;;11.20;7.20;;;;;;;0.85;68.58;96877.83;107736;1270;34691;-78
2022/04/18 01:56:27;;;;;;;13.30;7.70;;;;;;;0.82;68.86;96872.98;107717;1270;33337;-78
2022/04/18 01:58:57;;;;;;;10.10;6.90;;;;;;;0.80;68.79;96871.88;107684;1270;35608;-79
2022/04/18 02:01:28;;;;;;;10.30;5.70;;;;;;;0.74;68.67;96870.31;107751;1270;39331;-79
2022/04/18 02:03:59;;;;;;;11.40;6.10;;;;;;;0.69;68.88;96862.10;107677;1270;38959;-78
2022/04/18 02:06:30;;;;;;;8.90;5.80;;;;;;;0.68;68.94;96861.49;107615;1270;44075;-78
2022/04/18 02:09:00;;;;;;;10.30;6.60;;;;;;;0.70;68.90;96860.05;107760;1270;33855;-79
2022/04/18 02:11:31;;;;;;;8.50;5.80;;;;;;;0.74;68.65;96861.88;107643;1270;37294;-78
2022/04/18 02:14:02;;;;;;;10.10;6.20;;;;;;;0.78;68.78;96858.77;107633;1271;36137;-79
2022/04/18 02:16:33;;;;;;;9.60;5.80;;;;;;;0.82;68.75;96851.79;107622;1270;44181;-79
2022/04/18 02:19:04;;;;;;;12.30;7.00;;;;;;;0.84;68.94;96848.11;107637;1269;38285;-79
2022/04/18 02:21:34;;;;;;;10.50;6.60;;;;;;;0.88;68.93;96847.67;107725;1270;31207;-79
2022/04/18 02:24:06;;;;;;;11.00;6.40;;;;;;;0.88;68.91;96842.89;107650;1270;36932;-78
2022/04/18 02:26:36;;;;;;;9.50;6.00;;;;;;;0.83;69.08;96844.52;107616;1270;41985;-78
2022/04/18 02:29:07;;;;;;;10.30;5.20;;;;;;;0.79;69.34;96844.23;107698;1270;33159;-78
2022/04/18 02:32:47;;;;;;;11.30;6.70;;;;;;;0.76;69.75;96846.49;107648;1270;42986;-79
2022/04/18 02:34:41;;;;;;;10.40;6.90;;;;;;;0.70;69.66;96848.24;107586;1269;38544;-79
2022/04/18 02:37:12;;;;;;;11.50;6.90;;;;;;;0.66;69.87;96850.64;107623;1269;35135;-78
2022/04/18 02:39:43;;;;;;;10.30;5.70;;;;;;;0.70;69.84;96849.90;107551;1269;36071;-79
2022/04/18 02:42:14;;;;;;;11.80;6.10;;;;;;;0.78;70.16;96852.82;107622;1269;39883;-79
2022/04/18 02:44:46;;;;;;;12.40;7.30;;;;;;;0.85;70.31;96853.73;107750;1270;34840;-79
2022/04/18 02:47:17;;;;;;;11.10;7.10;;;;;;;0.87;70.11;96854.55;107689;1270;37065;-79
2022/04/18 02:49:50;;;;;;;11.20;7.00;;;;;;;0.86;69.76;96857.80;107736;1270;32513;-79
2022/04/18 02:52:20;;;;;;;11.20;6.30;;;;;;;0.86;69.79;96855.91;107791;1270;38257;-79
2022/04/18 02:54:51;;;;;;;11.30;7.00;;;;;;;0.87;70.10;96856.05;107712;1270;37489;-79
2022/04/18 02:57:22;;;;;;;11.40;7.10;;;;;;;0.78;70.40;96851.38;107783;1270;32156;-79
2022/04/18 02:59:52;;;;;;;12.50;6.90;;;;;;;0.72;70.68;96856.15;107771;1270;43134;-79
2022/04/18 03:02:23;;;;;;;10.30;6.80;;;;;;;0.69;71.16;96860.77;107608;1270;36707;-79
2022/04/18 03:04:54;;;;;;;11.60;7.50;;;;;;;0.71;71.03;96861.30;107623;1271;32418;-78
2022/04/18 03:07:25;;;;;;;11.80;6.80;;;;;;;0.78;71.34;96865.34;107695;1270;37465;-78
2022/04/18 03:09:56;;;;;;;11.40;6.60;;;;;;;0.82;71.40;96853.83;107762;1270;42685;-78
2022/04/18 03:12:27;;;;;;;9.70;6.30;;;;;;;0.78;71.87;96854.50;107660;1270;37684;-78
2022/04/18 03:14:58;;;;;;;13.80;7.50;;;;;;;0.72;72.32;96851.46;107758;1269;31896;-79
2022/04/18 03:17:29;;;;;;;12.10;7.40;;;;;;;0.68;72.56;96843.55;107736;1270;34855;-80
2022/04/18 03:20:00;;;;;;;11.10;7.00;;;;;;;0.71;72.76;96842.07;107662;1270;41715;-79
2022/04/18 03:22:31;;;;;;;12.00;7.40;;;;;;;0.65;73.65;96835.72;107687;1270;37199;-79
2022/04/18 03:25:02;;;;;;;13.30;8.00;;;;;;;0.51;74.31;96831.33;107747;1268;33161;-78
2022/04/18 03:27:33;;;;;;;11.60;7.80;;;;;;;0.40;75.35;96829.14;107729;1270;31223;-79
2022/04/18 03:30:05;;;;;;;14.70;8.80;;;;;;;0.34;75.95;96825.69;107739;1270;36484;-79
2022/04/18 03:32:36;;;;;;;14.10;8.60;;;;;;;0.30;75.96;96828.52;107740;1270;37911;-79
2022/04/18 03:35:09;;;;;;;14.40;8.80;;;;;;;0.25;75.85;96824.02;107699;1270;33844;-79
2022/04/18 03:40:28;;;;;;;12.80;8.50;;;;;;;0.24;75.85;96817.05;107692;1270;41230;-79
2022/04/18 03:42:59;;;;;;;13.10;7.40;;;;;;;0.25;75.97;96819.58;107716;1270;39779;-79
2022/04/18 03:45:30;;;;;;;12.20;7.90;;;;;;;0.28;75.75;96817.92;107752;1270;36478;-78
2022/04/18 03:48:01;;;;;;;11.60;7.80;;;;;;;0.32;76.51;96813.63;107721;1270;34408;-79
2022/04/18 03:50:31;;;;;;;13.20;7.50;;;;;;;0.35;76.46;96815.13;107724;1269;44557;-79
2022/04/18 03:53:02;;;;;;;12.20;7.10;;;;;;;0.32;77.24;96808.49;107702;1270;40714;-79
2022/04/18 03:55:33;;;;;;;11.00;7.00;;;;;;;0.32;77.89;96811.17;107744;1270;42208;-79
2022/04/18 03:58:04;;;;;;;12.70;8.20;;;;;;;0.33;78.32;96809.17;107724;1270;36209;-79
2022/04/18 04:00:36;;;;;;;14.50;8.10;;;;;;;0.39;78.14;96808.80;107705;1270;38898;-79
2022/04/18 04:03:07;;;;;;;11.10;8.40;;;;;;;0.39;78.02;96804.95;107658;1270;33127;-79
2022/04/18 04:05:38;;;;;;;11.40;8.40;;;;;;;0.24;77.83;96803.74;107702;1270;34558;-79
2022/04/18 04:08:10;;;;;;;11.20;7.20;;;;;;;0.16;77.78;96804.91;107672;1270;35380;-79
2022/04/18 04:10:40;;;;;;;10.10;8.10;;;;;;;0.08;78.66;96802.66;107657;1270;39357;-78
2022/04/18 04:13:12;;;;;;;13.90;8.00;;;;;;;-0.01;78.68;96801.92;107645;1270;31263;-78
2022/04/18 04:15:43;;;;;;;13.10;8.20;;;;;;;-0.07;79.35;96801.23;107589;1270;38034;-79
2022/04/18 04:18:14;;;;;;;12.10;7.50;;;;;;;-0.06;79.64;96799.10;107700;1270;31685;-80
2022/04/18 04:20:45;;;;;;;12.10;8.40;;;;;;;-0.01;80.05;96797.16;107629;1270;40747;-80
2022/04/18 04:23:15;;;;;;;11.40;7.70;;;;;;;0.04;79.77;96797.91;107669;1269;32722;-80
2022/04/18 04:25:46;;;;;;;12.30;8.10;;;;;;;0.07;79.61;96795.36;107715;1270;38815;-79
2022/04/18 04:28:17;;;;;;;12.00;7.50;;;;;;;0.08;79.82;96794.19;107674;1269;34333;-80
2022/04/18 04:30:48;;;;;;;10.40;7.10;;;;;;;0.09;80.16;96794.63;107657;1270;32803;-80
2022/04/18 04:33:19;;;;;;;10.90;6.30;;;;;;;0.19;80.39;96794.91;107614;1269;38266;-80
2022/04/18 04:35:50;;;;;;;10.00;6.30;;;;;;;0.27;80.31;96794.63;107670;1269;45356;-80
2022/04/18 04:38:20;;;;;;;12.20;8.70;;;;;;;0.35;80.34;96795.23;107673;1269;40533;-80
2022/04/18 04:40:53;;;;;;;13.10;8.80;;;;;;;0.38;80.23;96793.39;107595;1270;216484;-80
2022/04/18 04:43:28;;;;;;;13.10;9.40;;;;;;;0.40;80.18;96797.56;107743;1270;37252;-79
2022/04/18 04:46:00;;;;;;;14.90;9.50;;;;;;;0.43;80.10;96796.77;107737;1270;40318;-79
2022/04/18 04:48:31;;;;;;;16.00;9.20;;;;;;;0.49;79.92;96796.76;107650;1269;56216;-79
2022/04/18 04:51:02;;;;;;;12.90;9.40;;;;;;;0.57;79.88;96797.59;107621;1270;41960;-80
2022/04/18 04:53:33;;;;;;;16.60;9.90;;;;;;;0.65;79.61;96793.04;107601;1269;68492;-80
2022/04/18 04:56:04;;;;;;;14.20;9.30;;;;;;;0.72;79.56;96791.36;107639;1269;33775;-79
2022/04/18 04:58:35;;;;;;;12.70;8.70;;;;;;;0.78;79.46;96794.73;107558;1269;117936;-80
2022/04/18 05:01:07;;;;;;;15.30;9.60;;;;;;;0.82;79.24;96792.56;107682;1270;71649;-79
2022/04/18 05:03:38;;;;;;;11.80;8.50;;;;;;;0.89;79.23;96794.61;107660;1268;60541;-80
2022/04/18 05:06:10;;;;;;;12.40;8.50;;;;;;;0.94;79.14;96802.29;107667;1270;99806;-79
2022/04/18 05:08:42;;;;;;;14.40;9.20;;;;;;;0.97;79.09;96806.14;107515;1270;103084;-79
2022/04/18 05:11:13;;;;;;;16.80;11.40;;;;;;;0.93;79.09;96819.39;107633;1269;45135;-80
2022/04/18 05:13:43;;;;;;;15.30;10.30;;;;;;;0.83;79.05;96822.08;107647;1269;34208;-81
2022/04/18 05:16:14;;;;;;;13.70;9.20;;;;;;;0.71;78.91;96832.91;107564;1269;39078;-79
2022/04/18 05:18:47;;;;;;;17.00;10.10;;;;;;;0.61;79.32;96822.45;107606;1269;42534;-79
2022/04/18 05:21:18;;;;;;;14.60;10.80;;;;;;;0.53;79.77;96810.86;107642;1269;39637;-79
2022/04/18 05:23:49;;;;;;;15.20;10.60;;;;;;;0.48;80.24;96805.23;107650;1269;32987;-79
2022/04/18 05:26:20;;;;;;;11.80;8.90;;;;;;;0.58;79.93;96793.13;107692;1269;36821;-80
2022/04/18 05:28:51;;;;;;;12.70;9.20;;;;;;;0.96;81.21;96784.52;107602;1269;34830;-80
2022/04/18 05:31:22;;;;;;;11.20;8.70;;;;;;;1.79;81.28;96779.58;107727;1269;44042;-80
2022/04/18 05:33:56;;;;;;;16.90;12.80;;;;;;;2.83;80.17;96785.21;107683;1269;34994;-80
2022/04/18 05:36:27;;;;;;;12.70;9.60;;;;;;;3.55;78.70;96786.80;107580;1269;47199;-80
2022/04/18 05:38:58;;;;;;;12.70;9.40;;;;;;;4.76;78.06;96791.69;107668;1269;33002;-80
2022/04/18 05:41:28;;;;;;;10.50;8.60;;;;;;;6.45;75.76;96787.85;107620;1269;40432;-81
2022/04/18 05:44:00;;;;;;;10.90;8.20;;;;;;;7.39;72.20;96792.75;107714;1268;36259;-80
2022/04/18 05:46:31;;;;;;;9.80;6.60;;;;;;;7.06;69.86;96792.75;107738;1269;38791;-81
2022/04/18 05:49:01;;;;;;;8.10;5.80;;;;;;;6.22;67.98;96794.02;107694;1269;32763;-80
2022/04/18 05:51:32;;;;;;;;;;;;;;;5.39;67.99;96794.55;107769;1270;36360;-81
2022/04/18 05:54:03;;;;;;;;;;;;;;;4.58;68.51;96796.89;107539;1271;40234;-80
2022/04/18 05:56:32;;;;;;;;;;;;;;;4.12;69.84;96789.30;107648;1269;32924;-80
2022/04/18 05:59:03;;;;;;;9.90;5.80;;;;;;;3.77;71.01;96789.94;107651;1269;50627;-80
2022/04/18 06:01:35;;;;;;;11.50;7.10;;;;;;;3.34;71.75;96787.59;107581;1269;39981;-80
2022/04/18 06:04:06;;;;;;;10.90;7.10;;;;;;;3.11;72.32;96793.13;107676;1269;44779;-80
2022/04/18 06:06:37;;;;;;;11.30;6.80;;;;;;;2.94;72.81;96793.34;107640;1269;33718;-79
2022/04/18 06:09:08;;;;;;;10.30;7.00;;;;;;;2.92;73.21;96795.14;107606;1269;34129;-79
2022/04/18 06:11:39;;;;;;;10.40;7.70;;;;;;;2.96;73.69;96795.13;107620;1269;41879;-80
2022/04/18 06:14:10;;;;;;;12.60;9.00;;;;;;;2.94;73.82;96798.64;107617;1269;37210;-79
2022/04/18 06:16:42;;;;;;;13.50;9.90;;;;;;;3.71;74.98;96796.90;107582;1269;91815;-80
2022/04/18 06:19:13;;;;;;;13.20;9.60;;;;;;;6.28;75.49;96785.56;107720;1270;34098;-80
2022/04/18 06:21:44;;;;;;;11.40;8.80;;;;;;;9.35;72.84;96779.61;107681;1270;37442;-81
2022/04/18 06:24:15;;;;;;;14.10;8.00;;;;;;;11.78;67.56;96775.84;107636;1270;53350;-80
2022/04/18 06:26:46;;;;;;;10.10;7.40;;;;;;;12.42;61.43;96774.38;107580;1270;36784;-80
2022/04/18 06:29:17;;;;;;;9.50;6.70;;;;;;;12.87;59.08;96761.48;107627;1269;33557;-81
2022/04/18 06:31:49;;;;;;;8.70;6.50;;;;;;;13.21;53.73;96764.97;107660;1269;32102;-81
2022/04/18 06:34:20;;;;;;;7.70;6.20;;;;;;;13.43;48.56;96766.23;107724;1269;32381;-80
2022/04/18 06:36:52;;;;;;;7.70;6.00;;;;;;;13.03;47.92;96771.23;107709;1269;31716;-81
2022/04/18 06:39:24;;;;;;;7.50;6.50;;;;;;;12.83;47.44;96769.85;107608;1269;36632;-80
2022/04/18 06:41:56;;;;;;;8.20;6.10;;;;;;;11.60;49.22;96770.48;107675;1269;31564;-80
2022/04/18 06:44:28;;;;;;;8.70;6.90;;;;;;;11.08;49.97;96769.10;107631;1269;35089;-80
2022/04/18 06:47:02;;;;;;;7.90;5.40;;;;;;;10.20;50.94;96775.43;107677;1269;33825;-81
2022/04/18 06:49:34;;;;;;;8.00;5.90;;;;;;;10.21;49.65;96771.63;107615;1269;41211;-81
2022/04/18 06:52:07;;;;;;;7.10;5.90;;;;;;;10.48;50.39;96769.69;107574;1269;35725;-81
2022/04/18 06:54:38;;;;;;;5.90;5.10;;;;;;;11.43;49.13;96760.48;107650;1269;36500;-81
2022/04/18 06:57:11;;;;;;;7.90;5.50;;;;;;;11.99;47.03;96756.61;107629;1269;35307;-81
2022/04/18 06:59:42;;;;;;;5.40;4.60;;;;;;;12.38;46.99;96751.62;107647;1269;30720;-81
2022/04/18 07:02:15;;;;;;;7.10;5.60;;;;;;;13.07;45.41;96750.86;107516;1269;32708;-81
2022/04/18 07:04:48;;;;;;;8.10;6.50;;;;;;;13.23;43.55;96752.16;107511;1269;32990;-82
2022/04/18 07:07:19;;;;;;;6.70;5.40;;;;;;;12.96;44.14;96749.20;107581;1269;30921;-81
2022/04/18 07:09:50;;;;;;;5.40;4.80;;;;;;;13.15;43.61;96748.03;107670;1269;33550;-81
2022/04/18 07:12:23;;;;;;;6.10;5.50;;;;;;;13.75;43.88;96741.67;107692;1269;36640;-81
2022/04/18 07:14:58;;;;;;;7.80;6.00;;;;;;;14.61;42.38;96742.64;107649;1269;40172;-80
2022/04/18 07:17:30;;;;;;;6.20;5.50;;;;;;;14.82;41.41;96737.27;107853;1269;34197;-80
2022/04/18 07:20:02;;;;;;;7.30;5.40;;;;;;;15.19;42.71;96735.11;107544;1270;29937;-81
2022/04/18 07:22:39;;;;;;;5.80;4.70;;;;;;;15.00;40.69;96735.07;107424;1269;29310;-80
2022/04/18 07:25:11;;;;;;;5.90;5.10;;;;;;;14.71;41.58;96736.64;107555;1269;34031;-80
2022/04/18 07:27:44;;;;;;;5.70;4.60;;;;;;;16.50;42.86;96733.64;107423;1271;43710;-78
2022/04/18 07:30:15;;;;;;;5.60;4.60;;;;;;;17.96;39.16;96722.31;107618;1269;37584;-78
2022/04/18 07:32:46;;;;;;;6.30;4.80;;;;;;;18.28;37.75;96718.39;107611;1269;46801;-79
2022/04/18 07:35:17;;;;;;;6.80;4.40;;;;;;;16.13;36.46;96722.48;107646;1269;29610;-80
2022/04/18 07:40:33;;;;;;;5.00;4.40;;;;;;;16.00;38.95;96725.90;107624;1269;32835;-80
2022/04/18 07:43:04;;;;;;;6.30;4.80;;;;;;;16.77;37.98;96728.36;107486;1271;30570;-81
2022/04/18 07:45:38;;;;;;;7.80;5.30;;;;;;;15.41;37.67;96727.02;107614;1270;34148;-82
2022/04/18 07:48:10;;;;;;;8.10;5.20;;;;;;;13.51;38.67;96723.77;107648;1270;35761;-82
2022/04/18 07:53:31;;;;;;;6.50;4.60;;;;;;;12.25;41.43;96725.67;107675;1269;31117;-82
2022/04/18 07:56:02;;;;;;;6.10;3.90;;;;;;;11.05;41.29;96722.26;107510;1269;30487;-81
2022/04/18 07:58:33;;;;;;;5.90;4.30;;;;;;;9.61;42.81;96722.52;107570;1269;36636;-83
2022/04/18 08:01:05;;;;;;;8.20;4.50;;;;;;;8.57;44.62;96732.52;107598;1270;32171;-81
2022/04/18 08:03:37;;;;;;;5.10;4.20;;;;;;;8.13;45.88;96737.88;107644;1269;29510;-80
2022/04/18 08:06:08;;;;;;;5.40;4.30;;;;;;;7.96;46.55;96739.67;107647;1269;36820;-81
2022/04/18 08:08:40;;;;;;;39.40;25.50;;;;;;;7.94;47.85;96735.80;107649;1269;31614;-80
2022/04/18 08:11:11;;;;;;;41.10;25.90;;;;;;;8.13;48.33;96730.08;107606;1269;41576;-80
2022/04/18 08:13:43;;;;;;;28.60;18.80;;;;;;;8.60;48.43;96727.66;107609;1269;30146;-81
2022/04/18 08:16:14;;;;;;;49.10;31.90;;;;;;;9.16;48.42;96726.59;107655;1268;32371;-80
2022/04/18 08:18:46;;;;;;;72.90;50.10;;;;;;;9.41;47.67;96724.44;107647;1269;30996;-81
2022/04/18 08:21:19;;;;;;;16.30;12.50;;;;;;;9.35;47.25;96723.66;107616;1269;58620;-81
2022/04/18 08:23:52;;;;;;;14.30;10.30;;;;;;;9.45;47.06;96724.77;107851;1269;58189;-81
2022/04/18 08:26:26;;;;;;;6.40;5.00;;;;;;;9.55;46.09;96728.45;107399;1268;44556;-80
2022/04/18 08:28:58;;;;;;;8.30;4.90;;;;;;;9.15;46.82;96730.14;107551;1270;91121;-81
2022/04/18 08:31:35;;;;;;;6.30;5.20;;;;;;;9.86;47.22;96728.14;107521;1270;94403;-82
2022/04/18 08:34:08;;;;;;;6.60;4.90;;;;;;;12.18;44.35;96723.95;107562;1270;103503;-77
2022/04/18 08:36:41;;;;;;;5.10;4.10;;;;;;;14.54;43.86;96715.85;107544;1269;105408;-79
2022/04/18 08:39:19;;;;;;;4.50;4.00;;;;;;;17.18;39.60;96710.54;107707;1270;70002;-80
2022/04/18 08:41:53;;;;;;;5.70;4.50;;;;;;;16.03;35.21;96706.30;107522;1270;100284;-80
2022/04/18 08:44:30;;;;;;;5.80;4.70;;;;;;;13.08;38.13;96708.28;106066;1270;2248754;-80
2022/04/18 08:47:02;;;;;;;5.50;4.50;;;;;;;11.65;39.60;96708.14;107911;1269;63175;-80
2022/04/18 08:55:13;;;;;;;8.20;5.80;;;;;;;10.14;44.11;96700.10;107475;1268;87592;-81
2022/04/18 08:57:44;;;;;;;9.00;5.70;;;;;;;12.51;44.61;96695.27;107497;1269;97162;-77
2022/04/18 09:00:19;;;;;;;7.40;5.60;;;;;;;15.65;41.06;96684.46;107598;1269;101470;-77
2022/04/18 09:03:00;;;;;;;8.40;5.90;;;;;;;17.28;38.13;96679.27;107564;1269;108396;-77
2022/04/18 09:05:37;;;;;;;6.80;5.60;;;;;;;18.05;37.70;96676.89;107445;1269;174266;-78
2022/04/18 09:08:12;;;;;;;9.80;6.00;;;;;;;18.35;35.92;96674.27;107539;1270;173734;-78
2022/04/18 09:10:49;;;;;;;8.00;5.10;;;;;;;17.66;35.79;96671.89;107698;1270;93961;-80
2022/04/18 09:13:26;;;;;;;9.00;6.00;;;;;;;16.13;35.41;96674.70;107618;1270;91439;-80
2022/04/18 09:15:58;;;;;;;6.30;5.40;;;;;;;14.08;36.47;96679.64;107671;1269;66992;-79
2022/04/18 09:18:29;;;;;;;6.90;5.80;;;;;;;12.78;37.70;96683.97;107713;1269;65849;-78
2022/04/18 09:21:06;;;;;;;6.80;5.20;;;;;;;11.91;38.38;96685.80;107737;1267;67897;-77
2022/04/18 09:23:39;;;;;;;8.10;5.40;;;;;;;11.14;39.11;96683.95;107584;1269;95980;-78
2022/04/18 09:26:12;;;;;;;7.30;5.50;;;;;;;10.46;40.04;96683.30;108241;1269;99996;-77
2022/04/18 09:28:44;;;;;;;8.40;6.30;;;;;;;10.09;41.29;96682.34;107709;1269;73708;-77
2022/04/18 09:31:19;;;;;;;9.20;6.10;;;;;;;9.96;41.46;96675.73;107557;1269;66672;-78
2022/04/18 09:33:58;;;;;;;8.30;5.80;;;;;;;9.65;41.61;96675.05;107643;1269;70131;-78
2022/04/18 09:36:30;;;;;;;8.40;5.60;;;;;;;9.01;41.18;96671.80;107599;1269;66504;-77
2022/04/18 09:39:02;;;;;;;7.00;5.20;;;;;;;8.23;42.27;96681.04;107447;1269;293125;-77
2022/04/18 09:41:41;;;;;;;7.40;4.70;;;;;;;7.77;42.71;96681.10;106300;1269;1982839;-77
2022/04/18 09:44:27;;;;;;;6.70;4.90;;;;;;;7.34;43.68;96683.38;107652;1269;98022;-78
2022/04/18 09:47:00;;;;;;;6.70;5.00;;;;;;;7.11;44.29;96678.22;107771;1269;75550;-79
2022/04/18 09:49:43;;;;;;;8.20;5.00;;;;;;;7.03;44.86;96683.39;107764;1269;67512;-81
2022/04/18 09:52:16;;;;;;;6.80;4.60;;;;;;;6.91;45.13;96679.25;107589;1268;85161;-80
2022/04/18 09:54:55;;;;;;;6.00;4.30;;;;;;;6.90;45.89;96674.44;107641;1269;85545;-80
2022/04/18 09:57:28;;;;;;;6.20;4.70;;;;;;;6.99;45.59;96678.04;107630;1269;71215;-79
2022/04/18 10:00:01;;;;;;;4.70;2.90;;;;;;;7.07;45.90;96677.20;107689;1269;71226;-79
2022/04/18 10:02:35;;;;;;;6.80;3.80;;;;;;;7.17;44.47;96676.42;107648;1269;110127;-79
2022/04/18 10:05:10;;;;;;;5.30;4.40;;;;;;;7.32;45.14;96675.77;107770;1269;95974;-79
2022/04/18 10:07:41;;;;;;;8.70;5.10;;;;;;;7.42;45.19;96675.23;107790;1269;69341;-78
2022/04/18 10:10:14;;;;;;;6.60;5.30;;;;;;;7.46;45.60;96670.83;107698;1269;86003;-77
2022/04/18 10:12:45;;;;;;;5.70;4.60;;;;;;;7.51;45.70;96674.77;107651;1269;41262;-77
2022/04/18 10:15:16;;;;;;;7.80;4.40;;;;;;;7.45;45.27;96669.98;107624;1270;33812;-78
2022/04/18 10:17:48;;;;;;;6.60;4.40;;;;;;;7.39;45.48;96670.38;107414;1269;32341;-78
2022/04/18 10:20:37;;;;;;;6.70;4.50;;;;;;;7.41;45.84;96668.64;107594;1269;70706;-78
2022/04/18 10:23:39;;;;;;;7.00;4.30;;;;;;;7.61;45.76;96663.20;107688;1270;63276;-78
2022/04/18 10:26:31;;;;;;;6.80;5.00;;;;;;;7.40;44.69;96660.36;107604;1270;55476;-78
2022/04/18 10:29:10;;;;;;;6.40;4.70;;;;;;;7.09;45.59;96658.18;107641;1269;72912;-78
2022/04/18 10:31:42;;;;;;;7.10;4.80;;;;;;;7.18;46.08;96654.02;107659;1270;66528;-78
2022/04/18 10:34:15;;;;;;;7.00;4.70;;;;;;;7.40;46.00;96648.43;107695;1270;68850;-79
2022/04/18 10:36:53;;;;;;;8.00;5.30;;;;;;;8.10;46.54;96644.67;107454;1269;76869;-78
2022/04/18 10:39:32;;;;;;;5.70;4.60;;;;;;;8.50;45.07;96635.93;107711;1270;63443;-77
2022/04/18 10:42:21;;;;;;;6.50;4.90;;;;;;;8.59;43.47;96632.91;107802;1270;55558;-78
2022/04/18 10:45:06;;;;;;;7.50;5.00;;;;;;;8.76;44.49;96627.73;107790;1270;62004;-76
2022/04/18 10:48:05;;;;;;;6.70;4.30;;;;;;;8.86;43.73;96631.73;107700;1269;74546;-76
2022/04/18 10:50:39;;;;;;;6.60;4.70;;;;;;;8.92;43.45;96625.02;107902;1269;64108;-77
2022/04/18 10:53:20;;;;;;;8.20;5.70;;;;;;;8.90;43.63;96621.06;107628;1269;98892;-76
2022/04/18 10:56:12;;;;;;;7.70;5.60;;;;;;;8.65;43.56;96620.13;107780;1269;72018;-77
2022/04/18 10:58:51;;;;;;;8.50;5.20;;;;;;;8.22;42.99;96616.44;107839;1269;63477;-76
2022/04/18 11:01:22;;;;;;;6.10;4.20;;;;;;;7.86;44.36;96621.44;107739;1270;60861;-76
2022/04/18 11:04:01;;;;;;;6.90;4.30;;;;;;;7.54;44.10;96618.16;107763;1270;65834;-77
2022/04/18 11:06:58;;;;;;;6.60;4.30;;;;;;;7.49;43.75;96621.31;107756;1269;60504;-77
2022/04/18 11:09:31;;;;;;;7.90;4.90;;;;;;;7.58;44.51;96616.86;107720;1269;65291;-78
2022/04/18 11:12:12;;;;;;;5.10;4.00;;;;;;;7.78;43.85;96612.74;107701;1269;73902;-77
2022/04/18 11:14:55;;;;;;;9.00;4.80;;;;;;;8.11;44.60;96608.39;107780;1269;56299;-76
2022/04/18 11:17:32;;;;;;;7.60;4.90;;;;;;;8.48;44.04;96606.80;107714;1269;70330;-75
2022/04/18 11:20:31;;;;;;;5.30;4.10;;;;;;;8.47;42.59;96604.69;107865;1269;59990;-80
2022/04/18 11:23:25;;;;;;;7.10;4.80;;;;;;;7.98;43.19;96608.20;107602;1271;64738;-76
2022/04/18 11:25:58;;;;;;;7.70;4.80;;;;;;;8.09;43.58;96600.48;107690;1269;77367;-79
2022/04/18 11:28:36;;;;;;;7.90;4.40;;;;;;;8.18;42.61;96601.91;107815;1269;35358;-77
2022/04/18 11:31:17;;;;;;;6.80;4.60;;;;;;;7.94;42.62;96600.45;107742;1269;35777;-79
2022/04/18 11:33:50;;;;;;;7.00;4.80;;;;;;;7.88;43.89;96601.85;107628;1268;42712;-78
2022/04/18 11:36:25;;;;;;;8.60;5.30;;;;;;;8.14;44.17;96597.20;107649;1269;33924;-78
2022/04/18 11:39:07;;;;;;;7.80;5.60;;;;;;;8.33;43.99;96594.59;107654;1269;36030;-77
2022/04/18 11:41:38;;;;;;;7.10;5.00;;;;;;;8.40;43.75;96593.97;107611;1270;46231;-79
2022/04/18 11:44:09;;;;;;;6.80;4.70;;;;;;;8.62;44.19;96587.10;107643;1270;60244;-78
2022/04/18 11:46:40;;;;;;;7.50;4.90;;;;;;;8.95;43.97;96583.66;107662;1270;41313;-76
2022/04/18 11:49:13;;;;;;;7.90;5.60;;;;;;;9.11;43.15;96581.71;107594;1270;39337;-77
2022/04/18 11:51:46;;;;;;;8.40;5.70;;;;;;;9.10;43.49;96574.16;107725;1270;35137;-77
2022/04/18 11:54:17;;;;;;;9.80;6.90;;;;;;;9.28;43.50;96569.55;107616;1269;35199;-77
2022/04/18 11:57:00;;;;;;;9.70;6.80;;;;;;;9.33;42.71;96568.11;107551;1271;47561;-77
2022/04/18 11:59:32;;;;;;;7.80;5.80;;;;;;;9.34;42.71;96569.41;107641;1269;46216;-76
2022/04/18 12:07:48;;;;;;;7.70;5.90;;;;;;;9.11;43.08;96565.01;107655;1269;35799;-76
2022/04/18 12:10:25;;;;;;;10.20;5.30;;;;;;;9.30;42.98;96559.02;107507;1270;72179;-79
2022/04/18 12:12:57;;;;;;;7.30;5.10;;;;;;;9.44;42.80;96553.34;107657;1271;40327;-77
2022/04/18 12:15:29;;;;;;;8.50;5.30;;;;;;;9.47;42.66;96553.50;107575;1271;31236;-76
2022/04/18 12:18:10;;;;;;;7.80;5.20;;;;;;;9.52;42.44;96552.03;107661;1269;39300;-79
2022/04/18 12:20:45;;;;;;;9.10;6.90;;;;;;;9.30;42.24;96551.60;107735;1270;42072;-78